Thursday, June 21, 2018, 12:15 PM EDT
Back to Local

KCQX, Chatham Municipal Airport

Location: Chatham, MA, United States Lat: 41.683
Local Time: 12:15 PM EDT (16:15 GMT) Lon: -70
Time Zone: US/Eastern Elev: 68 ft

Show me the last for .
Show Coded

Time T Td Feel RH Dir Speed Gust Alt SLP Vis Weather Sky Remarks
2018-06-21 11:52 75 64 78 68 Variable 6 - 29.79 29.80 10 -RA CLR 1-hr Precip Total: Trace
2018-06-21 10:52 70 61 - 73 240° 7 - 29.80 29.80 10 CLR 1-hr Precip Total: Trace
6-hr Precip Total (11am): 0.00"
2018-06-21 09:52 69 60 - 73 Variable 6 - 29.80 29.80 10 FEW110 1-hr Precip Total: Trace
2018-06-21 08:52 67 62 - 84 220° 6 - 29.80 29.80 10 FEW060 1-hr Precip Total: Trace
2018-06-21 07:52 67 64 - 90 230° 8 - 29.79 29.79 10 -RA SCT007 OVC055 1-hr Precip Total: Trace
6-hr Precip Total (8am): 0.00"
6-hr Min Temp (8am): 64.9°F
6-hr Max Temp (8am): 68.0°F
2018-06-21 06:52 67 62 - 84 250° 5 - 29.78 29.78 10 -RA FEW060 SCT120 1-hr Precip Total: Trace
2018-06-21 05:52 67 63 - 87 220° 6 - 29.77 29.77 10 CLR None
2018-06-21 04:52 66 63 - 89 220° 3 - 29.76 29.76 10 CLR None
2018-06-21 03:52 66 62 - 87 230° 5 - 29.76 29.76 10 OVC120 None
2018-06-21 02:52 65 62 - 90 230° 8 - 29.77 29.77 10 BKN120 None
2018-06-21 01:52 65 62 - 90 220° 7 - 29.78 29.78 10 CLR 6-hr Min Temp (2am): 64.9°F
6-hr Max Temp (2am): 66.0°F
2018-06-21 00:52 66 62 - 87 220° 9 - 29.79 29.79 10 CLR 24-hr Min Temp (1am): 54.0°F
24-hr Max Temp (1am): 77.0°F
2018-06-20 23:52 66 62 - 87 230° 8 - 29.81 29.81 10 CLR None
2018-06-20 22:52 66 62 - 87 210° 8 - 29.81 29.81 10 CLR None
2018-06-20 21:52 66 61 - 83 220° 8 - 29.82 29.82 10 FEW018 None
2018-06-20 20:52 65 61 - 87 220° 9 - 29.80 29.80 10 CLR None
2018-06-20 19:52 66 63 - 89 210° 7 - 29.80 29.80 10 CLR 6-hr Min Temp (8pm): 66.0°F
6-hr Max Temp (8pm): 75.9°F
2018-06-20 19:03 67 63 - 87 230° 7 - 29.81 - 10 FEW007 None
2018-06-20 18:52 67 63 - 87 220° 8 16 29.81 29.81 10 CLR None
2018-06-20 17:52 69 63 - 80 210° 9 17 29.82 29.82 10 CLR None
2018-06-20 16:52 71 63 76 75 220° 10 23 29.84 29.84 10 CLR None
2018-06-20 15:52 70 61 - 73 210° 9 18 29.85 29.85 10 CLR None
2018-06-20 14:52 74 61 77 64 220° 8 21 29.85 29.85 10 CLR None
2018-06-20 13:52 75 60 78 59 210° 10 18 29.87 29.87 10 FEW036 6-hr Min Temp (2pm): 69.1°F
6-hr Max Temp (2pm): 77.0°F
2018-06-20 12:52 74 60 77 61 210° 10 - 29.87 29.88 10 CLR None

Support USWX by starting your Amazon purchase here.